Time;durP1;ratioP1;P1;durP2;ratioP2;P2;SDS_P1;SDS_P2;PMS_P1;PMS_P2;Temp;Humidity;BMP_temperature;BMP_pressure;BME280_temperature;BME280_humidity;BME280_pressure;Samples;Min_cycle;Max_cycle;Signal;HPM_P1;HPM_P2
2021/09/12 00:01:13;;;;;;;13.23;11.15;;;19.90;99.90;;;;;;5023381;28;20133;-81
2021/09/12 00:03:40;;;;;;;13.63;12.20;;;19.90;99.90;;;;;;5031859;28;20604;-81
2021/09/12 00:06:07;;;;;;;13.82;11.90;;;19.90;99.90;;;;;;5042990;28;20136;-82
2021/09/12 00:08:33;;;;;;;14.13;11.63;;;19.90;99.90;;;;;;5044568;28;20136;-81
2021/09/12 00:11:00;;;;;;;13.55;11.77;;;19.90;99.90;;;;;;5044432;28;20088;-82
2021/09/12 00:13:28;;;;;;;13.52;11.55;;;19.90;99.90;;;;;;5047954;28;20132;-82
2021/09/12 00:15:55;;;;;;;13.10;11.57;;;19.90;99.90;;;;;;5052988;28;20057;-81
2021/09/12 00:18:22;;;;;;;14.52;12.10;;;19.90;99.90;;;;;;5045999;28;20124;-81
2021/09/12 00:20:49;;;;;;;13.77;11.80;;;19.90;99.90;;;;;;5039859;28;20083;-80
2021/09/12 00:23:16;;;;;;;14.50;12.70;;;19.90;99.90;;;;;;5039506;28;20092;-82
2021/09/12 00:25:44;;;;;;;16.40;12.32;;;19.90;99.90;;;;;;5040157;28;20096;-82
2021/09/12 00:28:10;;;;;;;18.02;13.00;;;19.90;99.90;;;;;;5040807;28;20041;-81
2021/09/12 00:30:39;;;;;;;18.95;13.93;;;19.90;99.90;;;;;;5039543;28;20149;-82
2021/09/12 00:33:06;;;;;;;16.25;13.25;;;19.90;99.90;;;;;;5041223;28;20136;-83
2021/09/12 00:35:32;;;;;;;17.45;14.02;;;19.90;99.90;;;;;;5041220;28;20474;-83
2021/09/12 00:37:59;;;;;;;18.48;14.38;;;19.90;99.90;;;;;;5041225;28;20049;-83
2021/09/12 00:40:26;;;;;;;21.08;14.18;;;19.90;99.90;;;;;;5040359;28;20475;-82
2021/09/12 00:42:53;;;;;;;17.33;13.38;;;19.80;99.90;;;;;;5040770;28;20136;-82
2021/09/12 00:45:20;;;;;;;18.80;14.85;;;19.90;99.90;;;;;;5039989;28;20108;-83
2021/09/12 00:47:49;;;;;;;18.80;14.57;;;19.90;99.90;;;;;;5038424;28;20582;-81
2021/09/12 00:50:16;;;;;;;16.52;14.77;;;19.90;99.90;;;;;;5039986;28;20494;-82
2021/09/12 00:52:45;;;;;;;15.98;13.85;;;19.90;99.90;;;;;;5041307;28;20055;-82
2021/09/12 00:55:13;;;;;;;20.17;13.93;;;20.00;99.90;;;;;;5040820;28;20059;-83
2021/09/12 00:57:42;;;;;;;19.30;13.85;;;20.00;99.90;;;;;;5039527;28;20041;-83
2021/09/12 01:00:10;;;;;;;15.40;12.40;;;19.90;99.90;;;;;;5039382;28;20049;-83
2021/09/12 01:02:38;;;;;;;16.52;13.68;;;19.90;99.90;;;;;;5040721;28;20093;-83
2021/09/12 01:05:08;;;;;;;15.40;12.80;;;19.80;99.90;;;;;;5039250;28;20065;-83
2021/09/12 01:07:35;;;;;;;13.55;11.95;;;19.80;99.90;;;;;;5039533;28;20110;-82
2021/09/12 01:10:03;;;;;;;13.77;11.77;;;19.70;99.90;;;;;;5040474;28;20506;-81
2021/09/12 01:12:31;;;;;;;13.10;10.85;;;19.60;99.90;;;;;;5041434;28;20052;-82
2021/09/12 01:14:57;;;;;;;16.83;11.13;;;19.60;99.90;;;;;;5041672;28;20132;-83
2021/09/12 01:17:27;;;;;;;13.57;11.00;;;19.60;99.90;;;;;;5039931;28;20144;-83
2021/09/12 01:19:53;;;;;;;15.07;10.60;;;19.50;99.90;;;;;;5039257;28;20116;-82
2021/09/12 01:22:22;;;;;;;13.43;11.02;;;19.60;99.90;;;;;;5039890;28;20057;-82
2021/09/12 01:24:50;;;;;;;12.10;9.88;;;19.60;99.90;;;;;;5039536;28;20483;-83
2021/09/12 01:27:20;;;;;;;14.73;10.00;;;19.60;99.90;;;;;;5039956;28;20092;-83
2021/09/12 01:29:47;;;;;;;12.02;10.15;;;19.60;99.90;;;;;;5040015;28;20046;-82
2021/09/12 01:32:14;;;;;;;13.85;10.50;;;19.60;99.90;;;;;;5039940;28;20080;-83
2021/09/12 01:34:41;;;;;;;12.43;9.70;;;19.50;99.90;;;;;;5041123;28;20132;-84
2021/09/12 01:37:08;;;;;;;11.23;10.10;;;19.50;99.90;;;;;;5039144;28;20112;-83
2021/09/12 01:39:35;;;;;;;14.25;10.30;;;19.50;99.90;;;;;;5041645;28;20077;-82
2021/09/12 01:42:04;;;;;;;12.63;9.98;;;19.50;99.90;;;;;;5039785;28;20049;-83
2021/09/12 01:44:31;;;;;;;13.57;9.88;;;19.60;99.90;;;;;;5039432;28;20092;-83
2021/09/12 01:46:57;;;;;;;10.77;9.65;;;19.60;99.90;;;;;;5040996;28;20095;-83
2021/09/12 01:49:25;;;;;;;11.55;10.35;;;19.60;99.90;;;;;;5040350;28;20052;-83
2021/09/12 01:51:52;;;;;;;11.07;9.93;;;19.60;99.90;;;;;;5039784;28;20053;-81
2021/09/12 01:54:19;;;;;;;12.25;10.93;;;19.50;99.90;;;;;;5039315;28;20080;-82
2021/09/12 01:56:47;;;;;;;12.45;10.07;;;19.50;99.90;;;;;;5039618;28;20542;-82
2021/09/12 01:59:15;;;;;;;11.32;10.05;;;19.50;99.90;;;;;;5038395;28;20132;-82
2021/09/12 02:01:42;;;;;;;11.77;9.98;;;19.40;99.90;;;;;;5038407;28;20080;-83
2021/09/12 02:04:08;;;;;;;14.80;9.90;;;19.50;99.90;;;;;;5038981;28;20083;-83
2021/09/12 02:09:19;;;;;;;13.50;10.10;;;19.30;99.90;;;;;;5191826;23;20046;-80
2021/09/12 02:11:46;;;;;;;11.95;10.23;;;19.30;99.90;;;;;;5017797;28;20042;-81
2021/09/12 02:14:14;;;;;;;13.57;9.85;;;19.20;99.90;;;;;;5017514;28;20077;-81
2021/09/12 02:16:41;;;;;;;10.85;9.75;;;19.20;99.90;;;;;;5017921;28;20118;-82
2021/09/12 02:19:08;;;;;;;11.25;9.43;;;19.20;99.90;;;;;;5019297;28;20129;-83
2021/09/12 02:21:35;;;;;;;11.55;9.45;;;19.20;99.90;;;;;;5019348;28;20049;-81
2021/09/12 02:24:02;;;;;;;11.60;9.10;;;19.20;99.90;;;;;;5024157;28;20077;-82
2021/09/12 02:26:29;;;;;;;10.95;9.80;;;19.20;99.90;;;;;;5028261;28;20050;-82
2021/09/12 02:28:55;;;;;;;12.80;9.95;;;19.20;99.90;;;;;;5016396;28;20106;-81
2021/09/12 02:31:24;;;;;;;11.75;9.85;;;19.20;99.90;;;;;;5014873;28;20050;-81
2021/09/12 02:33:51;;;;;;;12.80;9.85;;;19.20;99.90;;;;;;5014672;28;20292;-81
2021/09/12 02:36:18;;;;;;;11.23;9.82;;;19.20;99.90;;;;;;5014974;28;20086;-81
2021/09/12 02:38:45;;;;;;;11.25;10.02;;;19.20;99.90;;;;;;5016089;28;20042;-81
2021/09/12 02:41:12;;;;;;;11.95;10.65;;;19.20;99.90;;;;;;5017005;28;20124;-81
2021/09/12 02:43:39;;;;;;;10.70;9.55;;;19.20;99.90;;;;;;5018037;28;20074;-82
2021/09/12 02:46:06;;;;;;;11.70;10.50;;;19.10;99.90;;;;;;5018090;28;20523;-82
2021/09/12 02:48:35;;;;;;;13.85;11.05;;;19.10;99.90;;;;;;5017667;28;20076;-81
2021/09/12 02:51:01;;;;;;;13.75;11.05;;;19.10;99.90;;;;;;5017315;28;20100;-82
2021/09/12 02:53:28;;;;;;;17.73;11.25;;;19.00;99.90;;;;;;5017352;28;20560;-81
2021/09/12 02:55:55;;;;;;;14.90;10.73;;;19.00;99.90;;;;;;5017556;28;20136;-80
2021/09/12 02:58:22;;;;;;;14.15;10.85;;;19.00;99.90;;;;;;5018041;28;20452;-81
2021/09/12 03:00:49;;;;;;;12.32;10.52;;;19.00;99.90;;;;;;5017672;28;20097;-80
2021/09/12 03:03:16;;;;;;;13.77;11.18;;;19.00;99.90;;;;;;5017696;28;20111;-82
2021/09/12 03:05:44;;;;;;;14.75;11.73;;;18.90;99.90;;;;;;5017500;28;20058;-82
2021/09/12 03:08:11;;;;;;;15.05;11.38;;;18.90;99.90;;;;;;5017306;28;20077;-81
2021/09/12 03:10:38;;;;;;;14.40;12.75;;;18.90;99.90;;;;;;5017567;28;20081;-81
2021/09/12 03:13:05;;;;;;;16.15;12.30;;;18.90;99.90;;;;;;5018694;28;20105;-84
2021/09/12 03:15:32;;;;;;;19.83;11.73;;;18.90;99.90;;;;;;5018815;28;20156;-82
2021/09/12 03:17:59;;;;;;;17.75;13.13;;;18.90;99.90;;;;;;5019182;28;20109;-83
2021/09/12 03:20:25;;;;;;;16.60;12.45;;;18.90;99.90;;;;;;5019964;28;20049;-82
2021/09/12 03:22:54;;;;;;;18.77;12.70;;;18.80;99.90;;;;;;5019982;28;20610;-82
2021/09/12 03:25:21;;;;;;;14.40;12.57;;;18.80;99.90;;;;;;5017809;28;20153;-85
2021/09/12 03:27:48;;;;;;;16.42;12.15;;;18.70;99.90;;;;;;5018302;28;20118;-83
2021/09/12 03:30:15;;;;;;;18.90;13.13;;;18.70;99.90;;;;;;5020446;28;20049;-84
2021/09/12 03:32:42;;;;;;;20.70;13.70;;;18.60;99.90;;;;;;5025136;28;20109;-83
2021/09/12 03:35:10;;;;;;;19.92;13.52;;;18.50;99.90;;;;;;5027877;28;20085;-83
2021/09/12 03:37:37;;;;;;;20.38;14.15;;;18.50;99.90;;;;;;5024692;28;20057;-84
2021/09/12 03:40:07;;;;;;;20.45;13.95;;;18.40;99.90;;;;;;5018261;28;20073;-81
2021/09/12 03:42:34;;;;;;;18.42;13.02;;;18.30;99.90;;;;;;5017949;28;20141;-81
2021/09/12 03:45:00;;;;;;;17.55;12.52;;;18.30;99.90;;;;;;5018867;28;20141;-82
2021/09/12 03:47:27;;;;;;;18.35;12.80;;;18.20;99.90;;;;;;5018879;28;20077;-82
2021/09/12 03:49:54;;;;;;;16.98;12.70;;;18.20;99.90;;;;;;5018091;28;20557;-82
2021/09/12 03:52:21;;;;;;;20.42;13.85;;;18.00;99.90;;;;;;5018499;28;20050;-81
2021/09/12 03:54:48;;;;;;;17.63;13.35;;;17.90;99.90;;;;;;5018527;28;20114;-83
2021/09/12 03:57:16;;;;;;;18.27;13.05;;;17.90;99.90;;;;;;5017929;28;20136;-82
2021/09/12 03:59:43;;;;;;;20.02;13.25;;;17.80;99.90;;;;;;5017880;28;20109;-83
2021/09/12 04:02:10;;;;;;;17.17;13.98;;;17.90;99.90;;;;;;5017940;28;20085;-81
2021/09/12 04:04:37;;;;;;;17.48;13.30;;;17.90;99.90;;;;;;5018409;28;20056;-81
2021/09/12 04:07:04;;;;;;;22.17;12.98;;;17.90;99.90;;;;;;5018488;28;20097;-82
2021/09/12 04:09:31;;;;;;;17.38;12.68;;;17.90;99.90;;;;;;5019194;28;20133;-82
2021/09/12 04:11:57;;;;;;;19.40;12.95;;;17.90;99.90;;;;;;5018286;28;20156;-82
2021/09/12 04:14:26;;;;;;;16.90;13.23;;;17.80;99.90;;;;;;5018994;28;20085;-81
2021/09/12 04:16:52;;;;;;;18.88;13.38;;;17.80;99.90;;;;;;5019199;28;20105;-82
2021/09/12 04:19:19;;;;;;;16.70;12.70;;;17.80;99.90;;;;;;5019514;28;20046;-82
2021/09/12 04:21:46;;;;;;;20.15;13.88;;;17.80;99.90;;;;;;5019024;28;20431;-82
2021/09/12 04:24:13;;;;;;;17.30;12.30;;;17.60;99.90;;;;;;5019548;28;20153;-81
2021/09/12 04:26:40;;;;;;;22.60;15.43;;;17.60;99.90;;;;;;5017201;28;20112;-82
2021/09/12 04:29:07;;;;;;;18.70;14.00;;;17.50;99.90;;;;;;5016853;28;20077;-82
2021/09/12 04:31:35;;;;;;;20.55;15.23;;;17.40;99.90;;;;;;5014725;28;20137;-82
2021/09/12 04:34:02;;;;;;;23.70;15.63;;;17.30;99.90;;;;;;5016363;28;20073;-82
2021/09/12 04:36:29;;;;;;;20.48;15.15;;;17.30;99.90;;;;;;5016540;28;20121;-82
2021/09/12 04:38:56;;;;;;;20.90;14.70;;;17.20;99.90;;;;;;5020037;28;20092;-82
2021/09/12 04:41:23;;;;;;;18.73;14.23;;;17.20;99.90;;;;;;5019593;28;20481;-81
2021/09/12 04:43:49;;;;;;;17.77;13.45;;;17.20;99.90;;;;;;5019168;28;20053;-81
2021/09/12 04:46:16;;;;;;;17.27;13.70;;;17.20;99.90;;;;;;5019026;28;20046;-81
2021/09/12 04:48:44;;;;;;;21.38;14.10;;;17.20;99.90;;;;;;5020287;28;20054;-83
2021/09/12 04:51:11;;;;;;;21.45;14.48;;;17.20;99.90;;;;;;5020513;28;20487;-81
2021/09/12 04:53:38;;;;;;;19.13;14.60;;;17.20;99.90;;;;;;5017986;28;20042;-80
2021/09/12 04:56:06;;;;;;;19.83;13.95;;;17.20;99.90;;;;;;5006054;28;20161;-80
2021/09/12 04:58:33;;;;;;;20.20;13.63;;;17.20;99.90;;;;;;4997214;28;20074;-79
2021/09/12 05:01:00;;;;;;;20.88;14.57;;;17.20;99.90;;;;;;4996114;28;20145;-79
2021/09/12 05:03:27;;;;;;;19.83;14.50;;;17.20;99.90;;;;;;5004620;28;20061;-78
2021/09/12 05:19:36;;;;;;;21.00;14.75;;;17.10;99.90;;;;;;4948925;28;20062;-80
2021/09/12 05:49:46;;;;;;;20.42;13.88;;;17.30;99.90;;;;;;4999671;28;20174;-79
2021/09/12 05:58:31;;;;;;;17.70;12.63;;;17.50;99.90;;;;;;4922496;28;20095;-77
2021/09/12 06:01:19;;;;;;;20.35;13.13;;;17.60;99.90;;;;;;4990380;28;20055;-78
2021/09/12 06:04:03;;;;;;;18.05;12.77;;;17.60;99.90;;;;;;4998562;28;20056;-78
2021/09/12 06:06:39;;;;;;;19.90;12.82;;;17.60;99.90;;;;;;4995711;28;20174;-78
2021/09/12 06:09:23;;;;;;;18.80;13.57;;;17.70;99.90;;;;;;4996780;28;20050;-78
2021/09/12 06:11:54;;;;;;;18.52;12.60;;;17.70;99.90;;;;;;4997083;28;20050;-78
2021/09/12 06:21:09;;;;;;;18.17;12.32;;;17.80;99.90;;;;;;4997290;28;20074;-78
2021/09/12 06:23:39;;;;;;;18.23;12.88;;;17.80;99.90;;;;;;4996618;28;20050;-78
2021/09/12 06:26:50;;;;;;;17.48;12.02;;;17.90;99.90;;;;;;4994926;28;20078;-78
2021/09/12 06:29:18;;;;;;;16.63;11.93;;;17.90;99.90;;;;;;4995991;28;20455;-78
2021/09/12 06:38:47;;;;;;;12.82;10.68;;;18.00;99.90;;;;;;4967015;28;20077;-78
2021/09/12 06:41:16;;;;;;;13.57;11.15;;;18.10;99.90;;;;;;5001238;28;20050;-78
2021/09/12 06:47:30;;;;;;;19.58;11.93;;;18.20;99.90;;;;;;4987525;28;20046;-79
2021/09/12 06:59:59;;;;;;;;;;;;;;;;;;;;;
2021/09/12 07:03:07;;;;;;;13.20;10.10;;;18.80;99.90;;;;;;4998639;28;20101;-79
2021/09/12 07:14:58;;;;;;;12.95;8.50;;;19.20;99.90;;;;;;5044252;28;20154;-80
2021/09/12 07:34:47;;;;;;;11.27;6.93;;;20.80;99.90;;;;;;4862301;29;20045;-78
2021/09/12 07:37:51;;;;;;;10.80;6.82;;;20.70;99.90;;;;;;4872060;29;20057;-79
2021/09/12 07:41:03;;;;;;;12.80;6.72;;;20.70;99.90;;;;;;5009131;28;20069;-79
2021/09/12 07:43:47;;;;;;;9.38;5.47;;;20.80;99.90;;;;;;5036664;28;20045;-79
2021/09/12 07:46:26;;;;;;;8.55;6.18;;;20.80;99.90;;;;;;5014904;28;20599;-78
2021/09/12 07:49:03;;;;;;;13.48;6.88;;;20.70;99.90;;;;;;5015120;28;20062;-79
2021/09/12 07:54:28;;;;;;;10.30;6.10;;;20.50;99.90;;;;;;4988187;28;20054;-78
2021/09/12 07:57:02;;;;;;;10.18;5.97;;;20.30;99.90;;;;;;5014194;28;20145;-79
2021/09/12 07:59:32;;;;;;;12.18;6.57;;;20.30;99.90;;;;;;5014308;28;20065;-77
2021/09/12 08:02:17;;;;;;;10.68;6.40;;;20.20;99.90;;;;;;5014527;28;20057;-77
2021/09/12 08:04:47;;;;;;;13.45;6.75;;;20.10;99.90;;;;;;5014651;28;20133;-79
2021/09/12 08:07:23;;;;;;;8.77;6.30;;;20.00;99.90;;;;;;5011935;28;20246;-79
2021/09/12 08:10:43;;;;;;;11.68;6.63;;;20.00;99.90;;;;;;5014528;28;20475;-77
2021/09/12 09:03:00;;;;;;;7.75;4.88;;;22.30;99.90;;;;;;4999125;28;20072;-88
2021/09/12 09:05:33;;;;;;;5.95;4.45;;;22.10;99.90;;;;;;5002447;28;20050;-87
2021/09/12 09:08:07;;;;;;;7.47;4.38;;;22.00;99.90;;;;;;5002029;28;20050;-86
2021/09/12 09:10:42;;;;;;;10.82;4.18;;;21.90;99.90;;;;;;5002246;28;20109;-87
2021/09/12 09:13:26;;;;;;;9.70;4.60;;;21.90;99.90;;;;;;5002254;28;20471;-88
2021/09/12 09:15:54;;;;;;;6.72;4.72;;;22.00;99.90;;;;;;5003159;28;20050;-87
2021/09/12 09:18:36;;;;;;;8.13;4.47;;;22.20;99.90;;;;;;5005189;28;20090;-86
2021/09/12 09:21:24;;;;;;;7.75;4.50;;;22.30;99.90;;;;;;5002645;28;20034;-92
2021/09/12 09:24:07;;;;;;;7.70;4.35;;;22.30;99.90;;;;;;5001410;28;20060;-91
2021/09/12 09:26:37;;;;;;;6.82;4.45;;;22.40;99.90;;;;;;5000183;28;20069;-90
2021/09/12 09:29:04;;;;;;;7.00;4.45;;;22.50;99.90;;;;;;5002478;28;20065;-87
2021/09/12 09:31:31;;;;;;;6.82;4.43;;;22.60;99.90;;;;;;5005324;28;20070;-88
2021/09/12 09:34:13;;;;;;;7.07;4.40;;;22.60;99.90;;;;;;5000991;28;20081;-87
2021/09/12 09:36:40;;;;;;;6.68;4.68;;;22.50;99.90;;;;;;5001616;28;20110;-86
2021/09/12 09:39:07;;;;;;;6.97;4.57;;;22.20;99.90;;;;;;5000818;28;20141;-88
2021/09/12 09:41:37;;;;;;;11.85;4.70;;;22.10;99.90;;;;;;4999713;28;20481;-88
2021/09/12 09:44:09;;;;;;;7.55;4.40;;;22.10;99.90;;;;;;4999091;28;20053;-88
2021/09/12 09:46:38;;;;;;;5.95;4.43;;;22.30;99.90;;;;;;4999747;28;20488;-86
2021/09/12 09:49:24;;;;;;;7.38;4.68;;;22.50;99.90;;;;;;5001125;28;20066;-86
2021/09/12 09:51:53;;;;;;;5.72;4.50;;;22.50;99.90;;;;;;4999186;28;20050;-87
2021/09/12 09:54:21;;;;;;;8.43;4.53;;;22.40;99.90;;;;;;5012117;28;20058;-87
2021/09/12 09:56:49;;;;;;;7.40;4.50;;;22.30;99.90;;;;;;5010606;28;20081;-87
2021/09/12 09:59:17;;;;;;;6.93;4.50;;;22.30;99.90;;;;;;5007537;28;20431;-87
2021/09/12 10:01:47;;;;;;;7.55;4.40;;;22.40;99.90;;;;;;5005962;28;20061;-88
2021/09/12 10:04:14;;;;;;;9.57;4.43;;;22.30;99.90;;;;;;5017393;28;20073;-87
2021/09/12 10:06:44;;;;;;;5.43;3.92;;;22.30;99.90;;;;;;5017307;28;20046;-89
2021/09/12 10:09:17;;;;;;;8.23;4.35;;;22.40;99.90;;;;;;5016135;28;20046;-87
2021/09/12 10:11:47;;;;;;;8.30;4.20;;;22.60;99.90;;;;;;5017184;28;20054;-88
2021/09/12 10:14:19;;;;;;;8.00;4.30;;;22.60;99.90;;;;;;5018289;28;20088;-89
2021/09/12 10:16:48;;;;;;;6.55;4.57;;;22.50;99.90;;;;;;5009408;28;20065;-88
2021/09/12 10:19:32;;;;;;;8.30;3.97;;;22.40;99.90;;;;;;5001210;28;20129;-89
2021/09/12 10:22:02;;;;;;;7.60;4.20;;;22.10;99.90;;;;;;5000593;28;20081;-87
2021/09/12 10:24:32;;;;;;;7.88;4.20;;;21.90;99.90;;;;;;5003528;28;20085;-90
2021/09/12 10:27:00;;;;;;;7.28;4.03;;;21.90;99.90;;;;;;5001477;28;20133;-88
2021/09/12 10:29:46;;;;;;;6.68;4.50;;;22.00;99.90;;;;;;5001920;28;20085;-88
2021/09/12 10:32:34;;;;;;;6.25;4.00;;;22.00;99.90;;;;;;5001335;28;20173;-88
2021/09/12 10:35:21;;;;;;;6.90;4.45;;;22.00;99.90;;;;;;5003692;28;20065;-89
2021/09/12 10:38:11;;;;;;;8.02;4.30;;;22.10;99.90;;;;;;5000442;28;20084;-88
2021/09/12 10:41:12;;;;;;;7.93;3.75;;;22.10;99.90;;;;;;5001907;28;20050;-91
2021/09/12 10:43:44;;;;;;;6.15;4.00;;;22.20;99.90;;;;;;5018362;28;20065;-90
2021/09/12 10:46:35;;;;;;;7.15;4.10;;;22.20;99.90;;;;;;5022966;28;20077;-88
2021/09/12 10:49:12;;;;;;;5.70;4.13;;;22.20;99.90;;;;;;5006135;28;20133;-88
2021/09/12 10:51:43;;;;;;;7.22;4.18;;;22.20;99.90;;;;;;5000329;28;20042;-88
2021/09/12 10:54:12;;;;;;;6.45;3.72;;;22.30;99.90;;;;;;5002184;28;20473;-87
2021/09/12 10:56:40;;;;;;;4.32;3.65;;;22.40;99.90;;;;;;5002334;28;20083;-90
2021/09/12 10:59:12;;;;;;;6.65;4.05;;;22.50;99.90;;;;;;5006486;28;20050;-88
2021/09/12 11:01:42;;;;;;;6.50;3.65;;;22.50;99.90;;;;;;5002507;28;20085;-91
2021/09/12 11:04:10;;;;;;;5.88;3.60;;;22.60;99.90;;;;;;5006768;28;20046;-86
2021/09/12 11:06:39;;;;;;;5.28;3.30;;;22.70;99.90;;;;;;5009612;28;20062;-87
2021/09/12 11:09:17;;;;;;;8.07;3.90;;;22.90;99.90;;;;;;5010627;28;20050;-86
2021/09/12 11:11:45;;;;;;;6.45;4.03;;;23.00;99.90;;;;;;5010879;28;20043;-86
2021/09/12 11:14:16;;;;;;;5.25;3.30;;;23.10;99.90;;;;;;5011528;28;20046;-87
2021/09/12 11:16:44;;;;;;;5.97;3.85;;;23.10;99.90;;;;;;5011201;28;20081;-89
2021/09/12 11:19:12;;;;;;;8.30;3.80;;;23.30;99.90;;;;;;5010636;28;20055;-87
2021/09/12 11:21:40;;;;;;;7.15;3.88;;;23.40;99.90;;;;;;5010518;28;20054;-86
2021/09/12 11:24:10;;;;;;;8.00;3.78;;;23.40;99.90;;;;;;5009579;28;20136;-87
2021/09/12 11:26:44;;;;;;;6.30;4.13;;;23.50;99.90;;;;;;5011488;28;20050;-88
2021/09/12 11:29:14;;;;;;;4.60;3.42;;;23.50;99.90;;;;;;5011749;28;20060;-86
2021/09/12 11:31:43;;;;;;;5.63;3.78;;;23.50;99.90;;;;;;5011227;28;20046;-87
2021/09/12 11:34:11;;;;;;;5.43;3.63;;;23.60;99.90;;;;;;5010745;28;20084;-88
2021/09/12 11:36:46;;;;;;;4.97;3.50;;;23.60;99.90;;;;;;5010556;28;20046;-89
2021/09/12 11:39:14;;;;;;;6.05;4.07;;;23.70;99.90;;;;;;5009389;28;20432;-88
2021/09/12 11:41:44;;;;;;;6.43;3.95;;;23.70;99.90;;;;;;5008879;28;20050;-86
2021/09/12 11:44:13;;;;;;;6.15;3.60;;;23.40;99.90;;;;;;5017173;28;20068;-87
2021/09/12 11:46:53;;;;;;;5.35;4.00;;;23.30;99.90;;;;;;5028110;28;20054;-88
2021/09/12 11:49:20;;;;;;;6.72;3.70;;;23.30;99.90;;;;;;5031176;28;20050;-87
2021/09/12 11:51:50;;;;;;;5.22;3.88;;;23.30;99.90;;;;;;5032029;28;20073;-89
2021/09/12 11:54:23;;;;;;;7.70;3.90;;;23.30;99.90;;;;;;5032115;28;20081;-86
2021/09/12 11:56:59;;;;;;;7.15;3.92;;;23.40;99.90;;;;;;5030843;28;20050;-89
2021/09/12 11:59:35;;;;;;;11.48;4.72;;;23.40;99.90;;;;;;5031188;28;20053;-86
2021/09/12 12:02:04;;;;;;;5.10;4.10;;;23.50;99.90;;;;;;5032013;28;20053;-86
2021/09/12 12:04:34;;;;;;;5.80;4.32;;;23.60;99.90;;;;;;5032078;28;20064;-87
2021/09/12 12:09:55;;;;;;;6.55;3.95;;;23.40;99.90;;;;;;5031696;28;20060;-86
2021/09/12 12:12:25;;;;;;;7.25;4.43;;;23.10;99.90;;;;;;5038060;28;20066;-87
2021/09/12 12:15:08;;;;;;;7.25;4.18;;;23.00;99.90;;;;;;5037552;28;20057;-86
2021/09/12 12:17:36;;;;;;;7.45;4.30;;;23.10;99.90;;;;;;5032485;28;20053;-85
2021/09/12 12:20:24;;;;;;;5.72;4.22;;;23.20;99.90;;;;;;5032226;28;20054;-87
2021/09/12 12:22:51;;;;;;;6.18;3.85;;;23.10;99.90;;;;;;5030972;28;20061;-89
2021/09/12 12:25:28;;;;;;;7.75;3.75;;;23.10;99.90;;;;;;5031919;28;20050;-86
2021/09/12 12:27:55;;;;;;;7.13;4.20;;;23.10;99.90;;;;;;5033739;28;20042;-85
2021/09/12 12:30:23;;;;;;;7.03;4.30;;;22.90;99.90;;;;;;5036140;28;20057;-85
2021/09/12 12:32:51;;;;;;;6.88;4.50;;;22.70;99.90;;;;;;5038634;28;20068;-85
2021/09/12 12:36:07;;;;;;;6.25;4.05;;;22.60;99.90;;;;;;5039813;28;20049;-84
2021/09/12 12:38:35;;;;;;;5.82;4.13;;;22.80;99.90;;;;;;5039735;28;20061;-85
2021/09/12 12:41:07;;;;;;;8.38;4.00;;;23.10;99.90;;;;;;5039175;28;20060;-86
2021/09/12 12:43:35;;;;;;;6.22;4.20;;;23.20;99.90;;;;;;5039782;28;20084;-86
2021/09/12 12:46:04;;;;;;;8.70;4.28;;;23.20;99.90;;;;;;5038496;28;20052;-84
2021/09/12 12:48:33;;;;;;;6.50;4.28;;;22.90;99.90;;;;;;5032011;28;20129;-85
2021/09/12 12:51:12;;;;;;;6.05;4.32;;;22.80;99.90;;;;;;5032024;28;20037;-84
2021/09/12 12:53:43;;;;;;;6.13;3.90;;;22.60;99.90;;;;;;5032102;28;20092;-84
2021/09/12 12:56:15;;;;;;;5.25;4.03;;;22.60;99.90;;;;;;5031815;28;20060;-84
2021/09/12 12:58:43;;;;;;;5.60;4.20;;;22.70;99.90;;;;;;5031025;28;20061;-85
2021/09/12 13:01:12;;;;;;;5.88;4.07;;;22.80;99.90;;;;;;5029458;28;20289;-85
2021/09/12 13:03:40;;;;;;;5.97;3.97;;;22.90;99.90;;;;;;5023042;28;20082;-84
2021/09/12 13:06:10;;;;;;;6.15;4.00;;;23.00;99.90;;;;;;5010387;28;20089;-85
2021/09/12 13:08:38;;;;;;;7.30;4.10;;;23.10;99.90;;;;;;5010425;28;20050;-85
2021/09/12 13:11:05;;;;;;;6.93;4.07;;;23.00;99.90;;;;;;5010098;28;20046;-84
2021/09/12 13:13:32;;;;;;;5.82;3.92;;;23.00;99.90;;;;;;5009843;28;20053;-85
2021/09/12 13:15:59;;;;;;;7.45;4.28;;;23.10;99.90;;;;;;5008800;28;20046;-84
2021/09/12 13:18:28;;;;;;;6.65;4.07;;;23.10;99.90;;;;;;5008517;28;20046;-84
2021/09/12 13:20:55;;;;;;;7.90;4.50;;;23.20;99.90;;;;;;5008618;28;20061;-84
2021/09/12 13:23:22;;;;;;;5.38;3.60;;;23.30;99.90;;;;;;5008877;28;20102;-83
2021/09/12 13:25:49;;;;;;;5.13;3.63;;;23.30;99.90;;;;;;5009220;28;20081;-85
2021/09/12 13:28:16;;;;;;;6.05;3.67;;;23.30;99.90;;;;;;5009697;28;20054;-84
2021/09/12 13:30:44;;;;;;;5.68;3.90;;;23.30;99.90;;;;;;5009463;28;20061;-85
2021/09/12 13:33:11;;;;;;;8.27;3.90;;;23.20;99.90;;;;;;5010440;28;20057;-86
2021/09/12 13:35:40;;;;;;;6.68;4.10;;;23.20;99.90;;;;;;5009717;28;20105;-85
2021/09/12 13:38:07;;;;;;;6.78;4.20;;;23.20;99.90;;;;;;5009496;28;20054;-86
2021/09/12 13:40:34;;;;;;;7.28;3.85;;;23.20;99.90;;;;;;5009505;28;20054;-85
2021/09/12 13:43:01;;;;;;;4.57;3.60;;;23.30;99.90;;;;;;5003336;28;20345;-85
2021/09/12 13:45:28;;;;;;;4.13;3.42;;;23.40;99.90;;;;;;5008933;28;20081;-86
2021/09/12 13:47:55;;;;;;;5.07;3.38;;;23.30;99.90;;;;;;5009759;28;20082;-86
2021/09/12 13:50:22;;;;;;;6.15;3.80;;;23.30;99.90;;;;;;5009671;28;20050;-86
2021/09/12 13:52:50;;;;;;;5.30;3.80;;;23.20;99.90;;;;;;5009541;28;20042;-84
2021/09/12 13:55:17;;;;;;;4.72;3.38;;;23.10;99.90;;;;;;5009647;28;20050;-86
2021/09/12 13:57:44;;;;;;;6.60;3.50;;;23.10;99.90;;;;;;5010516;28;20066;-85
2021/09/12 14:00:11;;;;;;;5.07;3.25;;;23.10;99.90;;;;;;4998756;28;20513;-85
2021/09/12 14:02:39;;;;;;;6.88;4.30;;;23.10;99.90;;;;;;4990406;28;20077;-84
2021/09/12 14:05:06;;;;;;;6.57;4.28;;;23.20;99.90;;;;;;4990825;28;20050;-85
2021/09/12 14:07:34;;;;;;;6.57;3.88;;;23.20;99.90;;;;;;5007232;28;20058;-84
2021/09/12 14:10:03;;;;;;;6.07;3.80;;;23.20;99.90;;;;;;5010847;28;20054;-84
2021/09/12 14:12:30;;;;;;;5.78;3.47;;;23.20;99.90;;;;;;5011530;28;20050;-83
2021/09/12 14:14:57;;;;;;;8.32;4.05;;;23.10;99.90;;;;;;5011904;28;20057;-84
2021/09/12 14:17:24;;;;;;;5.75;3.95;;;23.10;99.90;;;;;;5010987;28;20073;-83
2021/09/12 14:19:51;;;;;;;5.20;3.63;;;23.00;99.90;;;;;;5012622;28;20054;-82
2021/09/12 14:22:19;;;;;;;5.57;3.75;;;22.90;99.90;;;;;;5012479;28;20073;-84
2021/09/12 14:24:46;;;;;;;7.70;3.88;;;22.90;99.90;;;;;;5011272;28;20050;-85
2021/09/12 14:27:15;;;;;;;7.47;3.80;;;22.90;99.90;;;;;;5010958;28;20054;-86
2021/09/12 14:29:42;;;;;;;10.50;4.00;;;23.00;99.90;;;;;;5009309;28;20057;-86
2021/09/12 14:32:09;;;;;;;8.55;4.10;;;22.90;99.90;;;;;;5010051;28;20500;-87
2021/09/12 14:34:37;;;;;;;6.70;4.00;;;22.80;99.90;;;;;;5009544;28;20493;-85
2021/09/12 14:37:05;;;;;;;6.60;4.30;;;22.80;99.90;;;;;;5008813;28;20088;-86
2021/09/12 14:39:32;;;;;;;9.57;3.58;;;22.90;99.90;;;;;;5008803;28;20050;-87
2021/09/12 14:41:59;;;;;;;4.70;3.60;;;22.90;99.90;;;;;;5009153;28;20046;-85
2021/09/12 14:44:27;;;;;;;7.05;4.10;;;22.90;99.90;;;;;;5009882;28;20128;-86
2021/09/12 14:46:54;;;;;;;7.80;4.05;;;22.80;99.90;;;;;;5010248;28;20061;-87
2021/09/12 14:49:21;;;;;;;5.38;3.70;;;22.80;99.90;;;;;;5010312;28;20050;-86
2021/09/12 14:51:48;;;;;;;7.07;3.80;;;22.70;99.90;;;;;;5009852;28;20173;-86
2021/09/12 14:54:16;;;;;;;5.95;3.70;;;22.80;99.90;;;;;;5009046;28;20112;-85
2021/09/12 14:56:43;;;;;;;8.00;3.92;;;22.80;99.90;;;;;;5008810;28;20050;-86
2021/09/12 14:59:10;;;;;;;6.35;4.18;;;22.70;99.90;;;;;;5009853;28;20469;-88
2021/09/12 15:01:38;;;;;;;6.47;3.92;;;22.70;99.90;;;;;;5015677;28;20042;-85
2021/09/12 15:04:05;;;;;;;7.43;4.05;;;22.70;99.90;;;;;;5015474;28;20054;-86
2021/09/12 15:06:34;;;;;;;8.00;4.25;;;22.80;99.90;;;;;;5015254;28;20050;-87
2021/09/12 15:09:01;;;;;;;5.43;4.05;;;22.70;99.90;;;;;;5011760;28;20077;-86
2021/09/12 15:11:28;;;;;;;6.63;4.22;;;22.70;99.90;;;;;;5011742;28;20085;-86
2021/09/12 15:13:55;;;;;;;7.68;4.55;;;22.60;99.90;;;;;;5013517;28;20054;-87
2021/09/12 15:16:22;;;;;;;6.63;4.45;;;22.60;99.90;;;;;;5013572;28;20046;-87
2021/09/12 15:18:50;;;;;;;6.45;4.45;;;22.60;99.90;;;;;;5011848;28;20081;-87
2021/09/12 15:21:17;;;;;;;8.07;4.55;;;22.50;99.90;;;;;;5012477;28;20042;-86
2021/09/12 15:23:44;;;;;;;10.60;4.93;;;22.40;99.90;;;;;;5009420;28;20050;-87
2021/09/12 15:26:11;;;;;;;6.38;4.43;;;22.50;99.90;;;;;;5009954;28;20065;-85
2021/09/12 15:28:38;;;;;;;8.60;4.70;;;22.40;99.90;;;;;;5011654;28;20050;-87
2021/09/12 15:31:05;;;;;;;7.88;5.15;;;22.40;99.90;;;;;;5012996;28;20149;-86
2021/09/12 15:33:32;;;;;;;8.50;4.72;;;22.40;99.90;;;;;;5011017;28;20046;-87